Terminal Aerodrome Forecast
Issued by NWS

Home | Current Version | Previous Version | Text Only | Print | Product List | Glossary Off
Versions: 1 2 3 4 5 6 7 8 9 10 11 12 13 14 15 16 17 18 19 20 21 22 23 24 25 26 27 28 29 30

000
FTUS43 KPAH 281725
TAFOWB
TAF
KOWB 281725Z 2818/0118 09006KT P6SM OVC050
     FM010300 11004KT 5SM -FZRASN BR BKN015 OVC035
     FM010800 13003KT 3SM -DZ BR OVC009
     FM011400 00000KT 2SM -DZ BR OVC006=

USA.gov is the U.S. government's official web portal to all federal, state and local government web resources and services.